createdAt,value
2018-09-24T00:00:13.064Z,71.5
2018-09-24T00:01:00.793Z,71.4
2018-09-24T00:01:50.561Z,71.4
2018-09-24T00:02:40.947Z,71.4
2018-09-24T00:03:30.996Z,71.4
2018-09-24T00:04:21.056Z,71.4
2018-09-24T00:05:10.818Z,71.4
2018-09-24T00:06:01.181Z,71.4
2018-09-24T00:06:51.238Z,71.4
2018-09-24T00:07:41.381Z,71.4
2018-09-24T00:08:31.366Z,71.4
2018-09-24T00:09:21.161Z,71.4
2018-09-24T00:10:11.767Z,71.4
2018-09-24T00:11:01.562Z,71.4
2018-09-24T00:11:51.639Z,71.4
2018-09-24T00:12:41.670Z,71.3
2018-09-24T00:13:30.866Z,71.3
2018-09-24T00:14:21.473Z,71.3
2018-09-24T00:15:11.903Z,71.3
2018-09-24T00:16:01.946Z,71.3
2018-09-24T00:16:51.432Z,71.3
2018-09-24T00:17:41.805Z,71.3
2018-09-24T00:18:32.405Z,71.3
2018-09-24T00:19:22.189Z,71.3
2018-09-24T00:20:12.232Z,71.3
2018-09-24T00:21:02.045Z,71.3
2018-09-24T00:21:51.849Z,71.3
2018-09-24T00:22:42.156Z,71.3
2018-09-24T00:23:32.492Z,71.2
2018-09-24T00:24:22.620Z,71.2
2018-09-24T00:25:12.343Z,71.2
2018-09-24T00:26:02.944Z,71.2
2018-09-24T00:26:52.189Z,71.2
2018-09-24T00:27:42.837Z,71.2
2018-09-24T00:28:33.434Z,71.2
2018-09-24T00:29:22.372Z,71.1
2018-09-24T00:30:12.721Z,71.1
2018-09-24T00:31:03.129Z,71.1
2018-09-24T00:31:52.557Z,71.1
2018-09-24T00:32:43.180Z,71.1
2018-09-24T00:33:32.519Z,71.1
2018-09-24T00:34:23.222Z,71.1
2018-09-24T00:35:13.198Z,71.1
2018-09-24T00:36:04.055Z,71.1
2018-09-24T00:36:53.337Z,71.1
2018-09-24T00:55:59.473Z,70.9
2018-09-24T00:56:49.010Z,70.9
2018-09-24T00:57:40.132Z,70.9
2018-09-24T00:58:29.641Z,70.8
2018-09-24T00:59:19.419Z,70.8
2018-09-24T01:00:10.049Z,70.8
2018-09-24T01:00:59.542Z,70.8
2018-09-24T01:01:49.869Z,70.8
2018-09-24T01:02:40.340Z,70.8
2018-09-24T01:03:29.998Z,70.8
2018-09-24T01:04:20.078Z,70.8
2018-09-24T01:05:09.844Z,70.8
2018-09-24T01:06:00.769Z,70.8
2018-09-24T01:06:50.239Z,70.8
2018-09-24T01:07:40.632Z,70.8
2018-09-24T01:08:30.373Z,70.7
2018-09-24T01:09:20.125Z,70.8
2018-09-24T01:10:10.247Z,70.7
2018-09-24T01:11:00.617Z,70.7
2018-09-24T01:11:50.631Z,70.7
2018-09-24T01:12:40.427Z,70.7
2018-09-24T01:13:30.746Z,70.7
2018-09-24T01:14:20.597Z,70.6
2018-09-24T01:15:11.165Z,70.7
2018-09-24T01:16:00.946Z,70.6
2018-09-24T01:16:51.266Z,70.6
2018-09-24T01:17:41.371Z,70.6
2018-09-24T01:18:31.154Z,70.6
2018-09-24T01:19:21.180Z,70.6
2018-09-24T01:20:10.725Z,70.6
2018-09-24T01:21:01.611Z,70.6
2018-09-24T01:21:51.673Z,70.6
2018-09-24T01:22:41.722Z,70.6
2018-09-24T01:23:31.532Z,70.6
2018-09-24T01:24:21.045Z,70.5
2018-09-24T01:25:11.643Z,70.6
2018-09-24T01:26:01.767Z,70.5
2018-09-24T01:26:51.533Z,70.5
2018-09-24T01:27:41.817Z,70.5
2018-09-24T01:28:31.638Z,70.5
2018-09-24T01:29:21.962Z,70.5
2018-09-24T01:30:11.755Z,70.5
2018-09-24T01:31:02.363Z,70.5
2018-09-24T01:31:52.414Z,70.5
2018-09-24T01:32:42.226Z,70.4
2018-09-24T01:33:32.298Z,70.4
2018-09-24T01:34:21.775Z,70.4
2018-09-24T01:35:11.560Z,70.4
2018-09-24T01:36:02.494Z,70.4
2018-09-24T01:36:52.528Z,70.4
2018-09-24T01:37:42.865Z,70.4
2018-09-24T01:38:32.664Z,70.4
2018-09-24T01:39:22.441Z,70.4
2018-09-24T01:40:12.504Z,70.4
2018-09-24T01:41:03.135Z,70.4
2018-09-24T01:41:53.224Z,70.4
2018-09-24T01:42:42.642Z,70.4
2018-09-24T01:43:33.024Z,70.3
2018-09-24T01:44:23.134Z,70.3
2018-09-24T01:45:12.893Z,70.3
2018-09-24T01:46:03.229Z,70.3
2018-09-24T01:46:53.281Z,70.3
2018-09-24T01:47:43.324Z,70.3
2018-09-24T01:48:33.442Z,70.3
2018-09-24T01:49:23.738Z,70.3
2018-09-24T01:50:14.069Z,70.3
2018-09-24T01:51:03.876Z,70.3
2018-09-24T01:51:53.918Z,70.3
2018-09-24T01:52:44.001Z,70.3
2018-09-24T01:53:33.514Z,70.3
2018-09-24T01:54:24.159Z,70.2
2018-09-24T01:55:13.933Z,70.2
2018-09-24T01:56:04.248Z,70.2
2018-09-24T01:56:54.054Z,70.2
2018-09-24T01:57:44.095Z,70.2
2018-09-24T01:58:34.484Z,70.2
2018-09-24T01:59:23.389Z,70.2
2018-09-24T02:00:14.592Z,70.2
2018-09-24T02:01:04.341Z,70.2
2018-09-24T02:01:54.716Z,70.1
2018-09-24T02:02:44.870Z,70.1
2018-09-24T02:03:34.848Z,70.1
2018-09-24T02:04:24.318Z,70.1
2018-09-24T02:05:15.188Z,70.1
2018-09-24T02:06:05.028Z,70.1
2018-09-24T02:06:55.071Z,70.1
2018-09-24T02:07:44.860Z,70.1
2018-09-24T02:08:34.899Z,70.1
2018-09-24T02:09:24.993Z,70.1
2018-09-24T02:10:14.750Z,70.1
2018-09-24T02:11:05.138Z,70.1
2018-09-24T02:11:55.471Z,70
2018-09-24T02:12:45.193Z,70
2018-09-24T02:13:35.277Z,70
2018-09-24T02:14:25.903Z,70
2018-09-24T02:15:14.830Z,70
2018-09-24T02:16:05.208Z,70
2018-09-24T02:16:55.642Z,70
2018-09-24T02:17:45.940Z,69.9
2018-09-24T02:18:36.492Z,70
2018-09-24T02:19:26.022Z,69.9
2018-09-24T02:20:15.507Z,69.9
2018-09-24T02:21:06.142Z,69.9
2018-09-24T02:21:56.230Z,69.9
2018-09-24T02:22:45.445Z,69.9
2018-09-24T02:23:35.753Z,69.9
2018-09-24T02:24:26.662Z,69.9
2018-09-24T02:25:15.882Z,69.9
2018-09-24T02:26:06.242Z,69.9
2018-09-24T02:26:56.317Z,69.9
2018-09-24T02:27:46.945Z,69.9
2018-09-24T02:28:36.734Z,69.9
2018-09-24T02:29:26.750Z,69.8
2018-09-24T02:30:16.569Z,69.9
2018-09-24T02:31:06.666Z,69.8
2018-09-24T02:31:56.706Z,69.8
2018-09-24T02:32:46.838Z,69.8
2018-09-24T02:33:36.824Z,69.8
2018-09-24T02:34:27.161Z,69.8
2018-09-24T02:35:16.679Z,69.8
2018-09-24T02:36:07.024Z,69.8
2018-09-24T02:36:56.811Z,69.8
2018-09-24T02:37:47.452Z,69.8
2018-09-24T02:38:36.635Z,69.8
2018-09-24T02:39:27.554Z,69.8
2018-09-24T02:40:17.571Z,69.8
2018-09-24T02:41:07.669Z,69.8
2018-09-24T02:41:57.948Z,69.7
2018-09-24T02:42:47.802Z,69.7
2018-09-24T02:43:37.847Z,69.7
2018-09-24T02:44:27.986Z,69.7
2018-09-24T02:45:18.011Z,69.7
2018-09-24T02:46:07.798Z,69.7
2018-09-24T02:46:57.799Z,69.7
2018-09-24T02:47:48.188Z,69.6
2018-09-24T02:48:37.923Z,69.6
2018-09-24T02:49:28.597Z,69.6
2018-09-24T02:50:18.115Z,69.6
2018-09-24T02:51:07.883Z,69.6
2018-09-24T02:51:58.213Z,69.6
2018-09-24T02:52:48.570Z,69.6
2018-09-24T02:53:37.757Z,69.6
2018-09-24T02:54:28.386Z,69.6
2018-09-24T02:55:17.638Z,69.6
2018-09-24T02:56:08.530Z,69.6
2018-09-24T02:56:59.091Z,69.6
2018-09-24T02:57:48.936Z,69.6
2018-09-24T02:58:39.023Z,69.6
2018-09-24T02:59:29.025Z,69.5
2018-09-24T03:00:18.832Z,69.5
2018-09-24T03:01:09.167Z,69.5
2018-09-24T03:01:59.280Z,69.5
2018-09-24T03:02:49.130Z,69.5
2018-09-24T03:03:38.801Z,69.5
2018-09-24T03:04:29.442Z,69.5
2018-09-24T03:05:19.510Z,69.5
2018-09-24T03:06:09.578Z,69.4
2018-09-24T03:06:59.563Z,69.4
2018-09-24T03:07:49.687Z,69.4
2018-09-24T03:08:39.793Z,69.4
2018-09-24T03:09:29.842Z,69.4
2018-09-24T03:10:19.885Z,69.4
2018-09-24T03:11:09.647Z,69.4
2018-09-24T03:11:59.152Z,69.4
2018-09-24T03:12:49.520Z,69.4
2018-09-24T03:13:39.831Z,69.4
2018-09-24T03:14:30.457Z,69.4
2018-09-24T03:15:20.245Z,69.4
2018-09-24T03:16:10.047Z,69.3
2018-09-24T03:17:00.626Z,69.3
2018-09-24T03:17:50.479Z,69.3
2018-09-24T03:18:40.510Z,69.3
2018-09-24T03:19:30.326Z,69.3
2018-09-24T03:20:20.077Z,69.3
2018-09-24T03:21:10.674Z,69.3
2018-09-24T03:22:00.758Z,69.3
2018-09-24T03:22:49.964Z,69.3
2018-09-24T03:23:41.137Z,69.3
2018-09-24T03:24:30.627Z,69.3
2018-09-24T03:25:21.971Z,69.3
2018-09-24T03:26:11.705Z,69.3
2018-09-24T03:27:01.173Z,69.3
2018-09-24T03:27:50.951Z,69.2
2018-09-24T03:28:40.698Z,69.3
2018-09-24T03:29:30.468Z,69.2
2018-09-24T03:30:21.690Z,69.2
2018-09-24T03:31:10.898Z,69.2
2018-09-24T03:32:01.321Z,69.2
2018-09-24T03:32:50.996Z,69.2
2018-09-24T03:33:41.407Z,69.2
2018-09-24T03:34:31.673Z,69.2
2018-09-24T03:35:21.768Z,69.1
2018-09-24T03:36:10.666Z,69.1
2018-09-24T03:37:01.915Z,69.1
2018-09-24T03:37:51.928Z,69.1
2018-09-24T03:38:42.044Z,69.1
2018-09-24T03:39:32.089Z,69.1
2018-09-24T03:40:22.143Z,69.1
2018-09-24T03:41:11.948Z,69.1
2018-09-24T03:42:03.042Z,69.1
2018-09-24T03:42:52.295Z,69.1
2018-09-24T03:43:42.384Z,69.1
2018-09-24T03:44:31.880Z,69.1
2018-09-24T03:45:22.275Z,69.1
2018-09-24T03:46:12.020Z,69
2018-09-24T03:47:02.372Z,69.1
2018-09-24T03:47:52.404Z,69
2018-09-24T03:48:42.480Z,69
2018-09-24T03:49:32.242Z,69
2018-09-24T03:50:23.139Z,69
2018-09-24T03:51:12.664Z,69
2018-09-24T03:52:03.064Z,68.9
2018-09-24T03:52:51.916Z,68.9
2018-09-24T03:53:43.153Z,68.9
2018-09-24T03:54:32.919Z,68.9
2018-09-24T03:55:23.276Z,68.9
2018-09-24T03:56:12.718Z,68.9
2018-09-24T03:57:03.074Z,68.9
2018-09-24T03:57:52.894Z,68.9
2018-09-24T03:58:43.226Z,68.9
2018-09-24T03:59:32.984Z,68.9
2018-09-24T04:00:23.348Z,68.9
2018-09-24T04:01:13.134Z,68.9
2018-09-24T04:02:03.516Z,68.9
2018-09-24T04:02:53.835Z,68.9
2018-09-24T04:03:43.948Z,68.9
2018-09-24T04:04:33.403Z,68.9
2018-09-24T04:05:24.046Z,68.8
2018-09-24T04:06:14.095Z,68.8
2018-09-24T04:07:03.611Z,68.8
2018-09-24T04:07:54.197Z,68.8
2018-09-24T04:08:43.995Z,68.8
2018-09-24T04:09:34.792Z,68.8
2018-09-24T04:10:23.845Z,68.8
2018-09-24T04:11:14.456Z,68.8
2018-09-24T04:12:03.650Z,68.8
2018-09-24T04:12:54.595Z,68.8
2018-09-24T04:13:44.067Z,68.8
2018-09-24T04:14:34.728Z,68.8
2018-09-24T04:15:24.196Z,68.8
2018-09-24T04:16:14.577Z,68.7
2018-09-24T04:17:04.621Z,68.7
2018-09-24T04:17:54.684Z,68.7
2018-09-24T04:18:44.764Z,68.7
2018-09-24T04:19:35.402Z,68.7
2018-09-24T04:20:25.155Z,68.7
2018-09-24T04:21:15.192Z,68.6
2018-09-24T04:22:04.447Z,68.6
2018-09-24T04:22:54.245Z,68.6
2018-09-24T04:23:44.543Z,68.6
2018-09-24T04:24:35.505Z,68.6
2018-09-24T04:25:25.332Z,68.6
2018-09-24T04:26:16.532Z,68.6
2018-09-24T04:27:05.080Z,68.6
2018-09-24T04:27:55.694Z,68.6
2018-09-24T04:28:45.499Z,68.6
2018-09-24T04:29:34.405Z,68.6
2018-09-24T04:30:25.320Z,68.6
2018-09-24T04:31:15.966Z,68.6
2018-09-24T04:32:06.019Z,68.6
2018-09-24T04:32:56.416Z,68.6
2018-09-24T04:33:46.186Z,68.6
2018-09-24T04:34:35.999Z,68.5
2018-09-24T04:35:26.329Z,68.5
2018-09-24T04:36:16.609Z,68.5
2018-09-24T04:37:06.133Z,68.5
2018-09-24T04:37:56.162Z,68.5
2018-09-24T04:38:46.261Z,68.5
2018-09-24T04:39:37.104Z,68.5
2018-09-24T04:40:26.086Z,68.5
2018-09-24T04:41:16.748Z,68.4
2018-09-24T04:42:06.919Z,68.4
2018-09-24T04:42:56.619Z,68.4
2018-09-24T04:43:46.678Z,68.4
2018-09-24T04:44:36.419Z,68.4
2018-09-24T04:45:27.040Z,68.4
2018-09-24T04:46:17.077Z,68.4
2018-09-24T04:47:07.434Z,68.4
2018-09-24T04:47:56.918Z,68.4
2018-09-24T04:48:46.975Z,68.4
2018-09-24T04:49:37.341Z,68.4
2018-09-24T04:50:27.400Z,68.4
2018-09-24T04:51:17.196Z,68.4
2018-09-24T04:52:08.296Z,68.4
2018-09-24T04:52:57.575Z,68.3
2018-09-24T04:53:47.360Z,68.3
2018-09-24T04:54:37.441Z,68.3
2018-09-24T04:55:27.492Z,68.3
2018-09-24T04:56:17.580Z,68.3
2018-09-24T04:57:08.428Z,68.3
2018-09-24T04:57:57.667Z,68.3
2018-09-24T04:58:47.999Z,68.3
2018-09-24T04:59:37.920Z,68.3
2018-09-24T05:00:27.627Z,68.3
2018-09-24T05:01:18.217Z,68.2
2018-09-24T05:02:08.300Z,68.2
2018-09-24T05:02:58.064Z,68.2
2018-09-24T05:03:48.133Z,68.1
2018-09-24T05:04:38.375Z,68.1
2018-09-24T05:05:28.515Z,68.2
2018-09-24T05:06:18.007Z,68.1
2018-09-24T05:07:09.157Z,68.1
2018-09-24T05:24:51.081Z,67.9
2018-09-24T05:25:40.556Z,67.9
2018-09-24T05:26:30.357Z,67.9
2018-09-24T05:27:20.999Z,67.9
2018-09-24T05:28:10.444Z,67.9
2018-09-24T05:29:00.782Z,67.9
2018-09-24T05:29:50.963Z,67.9
2018-09-24T05:30:40.913Z,67.9
2018-09-24T05:31:30.956Z,67.9
2018-09-24T05:32:21.468Z,67.8
2018-09-24T05:33:11.101Z,67.8
2018-09-24T05:34:00.879Z,67.9
2018-09-24T05:34:51.475Z,67.8
2018-09-24T05:35:40.995Z,67.8
2018-09-24T05:36:30.573Z,67.8
2018-09-24T05:37:21.418Z,67.8
2018-09-24T05:38:11.197Z,67.8
2018-09-24T05:39:00.983Z,67.8
2018-09-24T05:39:51.620Z,67.8
2018-09-24T05:40:41.660Z,67.8
2018-09-24T05:41:31.470Z,67.8
2018-09-24T05:42:21.505Z,67.7
2018-09-24T05:43:11.335Z,67.7
2018-09-24T05:44:01.911Z,67.7
2018-09-24T05:44:51.406Z,67.7
2018-09-24T05:45:41.722Z,67.6
2018-09-24T05:46:32.130Z,67.6
2018-09-24T05:47:21.587Z,67.6
2018-09-24T05:48:11.952Z,67.6
2018-09-24T05:49:01.750Z,67.6
2018-09-24T05:49:52.347Z,67.6
2018-09-24T05:50:42.346Z,67.6
2018-09-24T05:51:32.401Z,67.6
2018-09-24T05:52:23.729Z,67.5
2018-09-24T05:53:12.860Z,67.5
2018-09-24T05:54:03.243Z,67.4
2018-09-24T05:54:52.990Z,67.4
2018-09-24T05:55:44.778Z,67.4
2018-09-24T05:56:33.800Z,67.4
2018-09-24T05:57:22.952Z,67.4
2018-09-24T05:58:12.995Z,67.4
2018-09-24T05:59:02.804Z,67.4
2018-09-24T05:59:53.085Z,67.4
2018-09-24T06:00:43.715Z,67.4
2018-09-24T06:01:32.977Z,67.4
2018-09-24T06:02:23.307Z,67.4
2018-09-24T06:03:13.089Z,67.4
2018-09-24T06:04:03.187Z,67.3
2018-09-24T06:04:53.507Z,67.3
2018-09-24T06:05:44.344Z,67.3
2018-09-24T06:06:33.359Z,67.3
2018-09-24T06:07:23.356Z,67.3
2018-09-24T06:08:13.763Z,67.3
2018-09-24T06:09:03.801Z,67.3
2018-09-24T06:09:53.871Z,67.3
2018-09-24T06:10:44.240Z,67.3
2018-09-24T06:11:34.564Z,67.3
2018-09-24T06:12:24.681Z,67.3
2018-09-24T06:13:14.725Z,67.3
2018-09-24T06:14:04.703Z,67.3
2018-09-24T06:14:53.378Z,67.3
2018-09-24T06:15:44.069Z,67.3
2018-09-24T06:16:34.411Z,67.2
2018-09-24T06:17:24.423Z,67.2
2018-09-24T06:18:14.503Z,67.2
2018-09-24T06:19:05.326Z,67.2
2018-09-24T06:19:54.363Z,67.2
2018-09-24T06:20:44.023Z,67.2
2018-09-24T06:21:35.023Z,67.1
2018-09-24T06:22:24.300Z,67.1
2018-09-24T06:23:14.319Z,67.1
2018-09-24T06:24:04.927Z,67.1
2018-09-24T06:24:54.713Z,67.1
2018-09-24T06:25:45.338Z,67.1
2018-09-24T06:26:34.848Z,67.1
2018-09-24T06:27:24.887Z,67.1
2018-09-24T06:28:15.347Z,67.1
2018-09-24T06:29:05.048Z,67.1
2018-09-24T06:29:55.380Z,67.1
2018-09-24T06:30:45.422Z,67.1
2018-09-24T06:31:35.221Z,67.1
2018-09-24T06:32:25.312Z,67
2018-09-24T06:33:15.654Z,67.1
2018-09-24T06:34:05.155Z,67
2018-09-24T06:34:55.499Z,67
2018-09-24T06:35:45.560Z,67
2018-09-24T06:36:35.637Z,67
2018-09-24T06:37:25.109Z,67
2018-09-24T06:38:15.437Z,66.9
2018-09-24T06:39:06.084Z,66.9
2018-09-24T06:39:56.152Z,66.9
2018-09-24T06:40:45.915Z,66.9
2018-09-24T06:41:36.234Z,66.9
2018-09-24T06:42:26.577Z,66.9
2018-09-24T06:43:16.524Z,66.9
2018-09-24T06:44:05.954Z,66.9
2018-09-24T06:44:56.534Z,66.9
2018-09-24T06:45:46.713Z,66.9
2018-09-24T06:46:36.940Z,66.9
2018-09-24T06:47:27.032Z,66.9
2018-09-24T06:48:16.836Z,66.8
2018-09-24T06:49:05.967Z,66.8
2018-09-24T06:49:56.949Z,66.8
2018-09-24T06:50:46.729Z,66.8
2018-09-24T06:51:37.080Z,66.8
2018-09-24T06:52:27.454Z,66.8
2018-09-24T06:53:16.883Z,66.8
2018-09-24T06:54:07.023Z,66.8
2018-09-24T06:54:56.780Z,66.8
2018-09-24T06:55:46.506Z,66.8
2018-09-24T06:56:37.473Z,66.8
2018-09-24T06:57:27.739Z,66.8
2018-09-24T06:58:16.996Z,66.8
2018-09-24T06:59:07.633Z,66.7
2018-09-24T06:59:57.419Z,66.7
2018-09-24T07:00:47.216Z,66.7
2018-09-24T07:01:37.501Z,66.7
2018-09-24T07:02:27.908Z,66.7
2018-09-24T07:03:17.961Z,66.7
2018-09-24T07:04:07.980Z,66.6
2018-09-24T07:04:57.873Z,66.6
2018-09-24T07:05:48.421Z,66.6
2018-09-24T07:06:37.936Z,66.6
2018-09-24T07:07:28.258Z,66.6
2018-09-24T07:08:18.050Z,66.6
2018-09-24T07:09:08.373Z,66.6
2018-09-24T07:09:58.410Z,66.6
2018-09-24T07:10:48.207Z,66.6
2018-09-24T07:11:39.011Z,66.6
2018-09-24T07:12:29.038Z,66.6
2018-09-24T07:13:19.519Z,66.6
2018-09-24T07:14:09.221Z,66.6
2018-09-24T07:14:58.248Z,66.6
2018-09-24T07:15:48.860Z,66.5
2018-09-24T07:16:38.612Z,66.5
2018-09-24T07:17:28.995Z,66.5
2018-09-24T07:18:19.305Z,66.5
2018-09-24T07:19:08.559Z,66.5
2018-09-24T07:19:58.900Z,66.5
2018-09-24T07:20:49.250Z,66.5
2018-09-24T07:21:39.987Z,66.5
2018-09-24T07:22:29.355Z,66.5
2018-09-24T07:23:20.003Z,66.5
2018-09-24T07:24:08.439Z,66.4
2018-09-24T07:24:59.583Z,66.4
2018-09-24T07:25:49.657Z,66.4
2018-09-24T07:26:39.130Z,66.4
2018-09-24T07:27:29.857Z,66.4
2018-09-24T07:28:20.827Z,66.4
2018-09-24T07:29:09.392Z,66.4
2018-09-24T07:29:59.999Z,66.4
2018-09-24T07:30:49.807Z,66.4
2018-09-24T07:31:40.122Z,66.4
2018-09-24T07:32:29.854Z,66.3
2018-09-24T07:33:21.337Z,66.3
2018-09-24T07:34:10.408Z,66.3
2018-09-24T07:35:00.459Z,66.3
2018-09-24T07:35:50.209Z,66.3
2018-09-24T07:36:40.476Z,66.3
2018-09-24T07:37:30.536Z,66.3
2018-09-24T07:38:20.369Z,66.3
2018-09-24T07:39:10.337Z,66.3
2018-09-24T07:40:00.477Z,66.3
2018-09-24T07:40:50.288Z,66.3
2018-09-24T07:41:40.856Z,66.3
2018-09-24T07:42:30.913Z,66.3
2018-09-24T07:43:21.319Z,66.3
2018-09-24T07:44:11.354Z,66.3
2018-09-24T07:45:01.117Z,66.3
2018-09-24T07:45:50.399Z,66.3
2018-09-24T07:46:41.244Z,66.2
2018-09-24T07:47:30.712Z,66.2
2018-09-24T07:48:21.362Z,66.2
2018-09-24T07:49:11.393Z,66.2
2018-09-24T07:50:01.194Z,66.2
2018-09-24T07:50:51.308Z,66.1
2018-09-24T07:51:41.328Z,66.2
2018-09-24T07:52:31.661Z,66.1
2018-09-24T07:53:21.185Z,66.1
2018-09-24T07:54:12.071Z,66.1
2018-09-24T07:55:01.100Z,66.1
2018-09-24T07:55:51.430Z,66.1
2018-09-24T07:56:42.002Z,66.1
2018-09-24T07:57:31.805Z,66.1
2018-09-24T07:58:21.575Z,66.1
2018-09-24T07:59:11.708Z,66.1
2018-09-24T08:00:01.735Z,66.1
2018-09-24T08:00:52.286Z,66.1
2018-09-24T08:01:42.095Z,66.1
2018-09-24T08:02:31.866Z,66
2018-09-24T08:03:22.227Z,66.1
2018-09-24T08:04:12.295Z,66
2018-09-24T08:05:02.120Z,66
2018-09-24T08:05:52.699Z,66
2018-09-24T08:06:42.485Z,66
2018-09-24T08:07:33.713Z,66
2018-09-24T08:08:23.242Z,66
2018-09-24T08:09:12.725Z,66
2018-09-24T08:10:03.014Z,65.9
2018-09-24T08:10:53.315Z,65.9
2018-09-24T08:11:42.839Z,65.9
2018-09-24T08:12:32.657Z,65.9
2018-09-24T08:13:24.936Z,65.9
2018-09-24T08:14:13.112Z,65.9
2018-09-24T08:15:03.124Z,65.9
2018-09-24T08:15:53.766Z,65.9
2018-09-24T08:16:43.025Z,65.9
2018-09-24T08:17:33.324Z,65.9
2018-09-24T08:18:23.765Z,65.9
2018-09-24T08:19:13.723Z,65.9
2018-09-24T08:20:02.946Z,65.9
2018-09-24T08:20:53.393Z,65.8
2018-09-24T08:21:43.953Z,65.8
2018-09-24T08:22:33.990Z,65.8
2018-09-24T08:23:24.383Z,65.8
2018-09-24T08:24:14.125Z,65.8
2018-09-24T08:25:03.898Z,65.8
2018-09-24T08:25:54.532Z,65.8
2018-09-24T08:26:43.995Z,65.8
2018-09-24T08:27:33.499Z,65.8
2018-09-24T08:28:24.391Z,65.8
2018-09-24T08:29:13.902Z,65.8
2018-09-24T08:30:04.271Z,65.8
2018-09-24T08:30:54.318Z,65.8
2018-09-24T08:31:44.985Z,65.7
2018-09-24T08:32:34.777Z,65.7
2018-09-24T08:33:24.490Z,65.7
2018-09-24T08:34:14.850Z,65.7
2018-09-24T08:35:04.885Z,65.7
2018-09-24T08:35:54.710Z,65.7
2018-09-24T08:36:44.770Z,65.7
2018-09-24T08:37:34.842Z,65.7
2018-09-24T08:38:24.915Z,65.6
2018-09-24T08:39:14.737Z,65.7
2018-09-24T08:40:05.289Z,65.6
2018-09-24T08:40:55.372Z,65.6
2018-09-24T08:41:44.860Z,65.6
2018-09-24T08:42:35.214Z,65.6
2018-09-24T08:43:25.547Z,65.5
2018-09-24T08:44:16.514Z,65.6
2018-09-24T08:45:05.702Z,65.5
2018-09-24T08:45:55.548Z,65.5
2018-09-24T08:46:45.578Z,65.6
2018-09-24T08:47:35.327Z,65.6
2018-09-24T08:48:25.954Z,65.7
2018-09-24T08:49:15.719Z,65.8
2018-09-24T08:50:05.789Z,65.8
2018-09-24T08:50:56.157Z,65.8
2018-09-24T08:51:45.922Z,65.9
2018-09-24T08:52:36.254Z,65.9
2018-09-24T08:53:26.726Z,66.1
2018-09-24T08:54:16.181Z,66.1
2018-09-24T08:55:05.385Z,66.3
2018-09-24T08:55:56.508Z,66.3
2018-09-24T08:56:46.893Z,66.3
2018-09-24T08:57:36.646Z,66.4
2018-09-24T08:58:26.453Z,66.6
2018-09-24T08:59:16.583Z,66.6
2018-09-24T09:00:06.033Z,66.7
2018-09-24T09:00:56.336Z,66.8
2018-09-24T09:01:46.951Z,66.9
2018-09-24T09:02:36.932Z,67
2018-09-24T09:03:26.536Z,67.1
2018-09-24T09:04:16.918Z,67.1
2018-09-24T09:05:06.355Z,67.3
2018-09-24T09:05:57.523Z,67.4
2018-09-24T09:06:47.058Z,67.4
2018-09-24T09:07:37.403Z,67.5
2018-09-24T09:08:28.669Z,67.6
2018-09-24T09:09:17.513Z,67.7
2018-09-24T09:10:07.325Z,67.8
2018-09-24T09:10:57.635Z,67.9
2018-09-24T09:11:46.892Z,67.9
2018-09-24T09:12:37.800Z,67.9
2018-09-24T09:13:27.877Z,68
2018-09-24T09:14:17.929Z,68.1
2018-09-24T09:15:07.433Z,68.2
2018-09-24T09:15:58.348Z,68.3
2018-09-24T09:16:48.082Z,68.4
2018-09-24T09:17:38.169Z,68.4
2018-09-24T09:18:28.249Z,68.6
2018-09-24T09:19:18.295Z,68.6
2018-09-24T09:20:08.078Z,68.8
2018-09-24T09:20:58.458Z,68.8
2018-09-24T09:21:48.209Z,68.9
2018-09-24T09:22:38.554Z,68.9
2018-09-24T16:40:06.037Z,67.3
2018-09-24T16:40:55.287Z,67.3
2018-09-24T16:41:45.057Z,67.3
2018-09-24T16:42:35.451Z,67.3
2018-09-24T16:43:26.237Z,67.3
2018-09-24T16:44:15.551Z,67.3
2018-09-24T16:45:05.366Z,67.3
2018-09-24T16:45:55.408Z,67.3
2018-09-24T16:46:45.718Z,67.3
2018-09-24T16:47:35.998Z,67.3
2018-09-24T16:48:25.856Z,67.3
2018-09-24T16:49:15.371Z,67.2
2018-09-24T16:50:06.901Z,67.2
2018-09-24T16:50:56.050Z,67.2
2018-09-24T16:51:45.810Z,67.2
2018-09-24T16:52:35.582Z,67.2
2018-09-24T16:53:26.237Z,67.2
2018-09-24T16:54:15.994Z,67.1
2018-09-24T16:55:06.065Z,67.1
2018-09-24T16:55:56.402Z,67.2
2018-09-24T16:56:45.892Z,67.1
2018-09-24T16:57:36.537Z,67.1
2018-09-24T16:58:26.604Z,67.1
2018-09-24T16:59:16.640Z,67.1
2018-09-24T17:00:06.731Z,67.1
2018-09-24T17:00:57.094Z,67.1
2018-09-24T17:01:47.152Z,67.1
2018-09-24T17:02:35.812Z,67.1
2018-09-24T17:03:27.293Z,67.1
2018-09-24T17:04:16.200Z,67.1
2018-09-24T17:05:06.568Z,67.1
2018-09-24T17:05:57.138Z,67.1
2018-09-24T17:06:47.467Z,67.1
2018-09-24T17:07:36.726Z,67.1
2018-09-24T17:08:27.081Z,67.1
2018-09-24T17:09:17.413Z,67
2018-09-24T17:10:07.192Z,67
2018-09-24T17:10:56.688Z,67
2018-09-24T17:11:48.599Z,67
2018-09-24T17:12:37.399Z,67
2018-09-24T17:13:27.729Z,67
2018-09-24T17:14:17.799Z,67
2018-09-24T17:15:07.618Z,67
2018-09-24T17:15:57.366Z,67
2018-09-24T17:16:47.947Z,66.9
2018-09-24T17:17:37.750Z,66.9
2018-09-24T17:18:27.573Z,66.9
2018-09-24T17:19:18.176Z,66.9
2018-09-24T17:20:07.661Z,66.9
2018-09-24T17:20:58.261Z,66.9
2018-09-24T17:21:47.829Z,66.9
2018-09-24T17:22:38.448Z,66.9
2018-09-24T17:23:27.713Z,66.9
2018-09-24T17:24:18.025Z,66.9
2018-09-24T17:25:08.651Z,66.9
2018-09-24T17:25:58.139Z,66.9
2018-09-24T17:26:49.029Z,66.9
2018-09-24T17:27:38.818Z,66.9
2018-09-24T17:28:28.568Z,66.8
2018-09-24T17:29:19.884Z,66.8
2018-09-24T17:30:08.461Z,66.8
2018-09-24T17:30:59.048Z,66.8
2018-09-24T17:31:48.820Z,66.8
2018-09-24T17:32:38.641Z,66.8
2018-09-24T17:33:28.983Z,66.8
2018-09-24T17:34:18.745Z,66.8
2018-09-24T17:35:09.248Z,66.8
2018-09-24T17:35:59.739Z,66.8
2018-09-24T17:36:49.483Z,66.8
2018-09-24T17:37:39.293Z,66.8
2018-09-24T17:38:29.343Z,66.8
2018-09-24T17:39:19.149Z,66.8
2018-09-24T17:40:09.762Z,66.8
2018-09-24T17:40:59.831Z,66.7
2018-09-24T17:41:49.316Z,66.7
2018-09-24T17:42:39.988Z,66.7
2018-09-24T17:43:28.899Z,66.7
2018-09-24T17:44:19.790Z,66.7
2018-09-24T17:45:10.151Z,66.7
2018-09-24T17:46:00.319Z,66.7
2018-09-24T17:46:50.261Z,66.7
2018-09-24T17:47:40.329Z,66.6
2018-09-24T17:48:30.372Z,66.7
2018-09-24T17:49:20.161Z,66.6
2018-09-24T17:50:09.918Z,66.6
2018-09-24T17:51:00.581Z,66.6
2018-09-24T17:51:50.348Z,66.6
2018-09-24T17:52:40.527Z,66.6
2018-09-24T17:53:30.729Z,66.6
2018-09-24T17:54:20.833Z,66.6
2018-09-24T17:55:10.612Z,66.6
2018-09-24T17:56:00.070Z,66.6
2018-09-24T17:56:50.965Z,66.6
2018-09-24T17:57:41.075Z,66.6
2018-09-24T17:58:31.380Z,66.6
2018-09-24T17:59:20.920Z,66.6
2018-09-24T18:00:11.700Z,66.6
2018-09-24T18:01:01.323Z,66.6
2018-09-24T18:01:51.627Z,66.6
2018-09-24T18:02:41.150Z,66.5
2018-09-24T18:03:31.747Z,66.5
2018-09-24T18:04:20.994Z,66.5
2018-09-24T18:05:11.110Z,66.5
2018-09-24T18:06:01.889Z,66.5
2018-09-24T18:06:50.909Z,66.5
2018-09-24T18:07:41.822Z,66.4
2018-09-24T18:08:31.303Z,66.4
2018-09-24T18:09:21.937Z,66.4
2018-09-24T18:10:11.701Z,66.4
2018-09-24T18:11:02.074Z,66.4
2018-09-24T18:11:51.800Z,66.4
2018-09-24T18:12:42.211Z,66.4
2018-09-24T18:13:31.697Z,66.4
2018-09-24T18:14:22.328Z,66.4
2018-09-24T18:15:11.842Z,66.4
2018-09-24T18:16:01.591Z,66.4
2018-09-24T18:16:52.239Z,66.4
2018-09-24T18:17:43.563Z,66.4
2018-09-24T18:18:32.647Z,66.4
2018-09-24T18:19:22.658Z,66.4
2018-09-24T18:20:12.758Z,66.3
2018-09-24T18:21:02.843Z,66.3
2018-09-24T18:21:52.083Z,66.3
2018-09-24T18:22:42.678Z,66.3
2018-09-24T18:23:32.450Z,66.3
2018-09-24T18:24:23.637Z,66.3
2018-09-24T18:25:13.146Z,66.3
2018-09-24T18:26:03.226Z,66.3
2018-09-24T18:26:53.526Z,66.3
2018-09-24T18:27:42.467Z,66.3
2018-09-24T18:28:33.635Z,66.3
2018-09-24T18:29:22.891Z,66.3
2018-09-24T18:30:13.272Z,66.3
2018-09-24T18:31:03.572Z,66.3
2018-09-24T18:31:53.167Z,66.3
2018-09-24T18:32:43.139Z,66.3
2018-09-24T18:33:33.787Z,66.2
2018-09-24T18:34:23.834Z,66.2
2018-09-24T18:35:13.612Z,66.2
2018-09-24T18:36:03.397Z,66.2
2018-09-24T18:36:54.289Z,66.2
2018-09-24T18:37:44.995Z,66.2
2018-09-24T18:38:33.863Z,66.2
2018-09-24T18:39:23.929Z,66.2
2018-09-24T18:40:14.281Z,66.1
2018-09-24T18:41:04.643Z,66.2
2018-09-24T18:41:54.418Z,66.1
2018-09-24T18:42:44.768Z,66.1
2018-09-24T18:43:34.255Z,66.1
2018-09-24T18:44:25.569Z,66.1
2018-09-24T18:45:14.428Z,66.1
2018-09-24T18:46:04.718Z,66.1
2018-09-24T18:46:54.474Z,66.1
2018-09-24T18:47:44.665Z,66.1
2018-09-24T18:48:34.623Z,66.1
2018-09-24T18:49:24.678Z,66
2018-09-24T18:50:15.061Z,66
2018-09-24T18:51:05.110Z,66
2018-09-24T18:51:55.425Z,66
2018-09-24T18:52:44.661Z,66
2018-09-24T18:53:35.278Z,66
2018-09-24T18:54:25.333Z,65.9
2018-09-24T18:55:14.845Z,65.9
2018-09-24T18:56:05.499Z,65.9
2018-09-24T18:56:54.989Z,65.9
2018-09-24T18:57:46.285Z,65.9
2018-09-24T18:58:35.662Z,65.9
2018-09-24T18:59:25.455Z,65.9
2018-09-24T19:00:15.796Z,65.9